sensor_id;sensor_type;location;lat;lon;timestamp;pressure;altitude;pressure_sealevel;temperature;humidity
61484;BME280;47349;55.640;37.692;2023-02-28T00:00:20;99728.38;;;-7.29;93.00
61484;BME280;47349;55.640;37.692;2023-02-28T00:02:47;99736.38;;;-7.34;93.56
61484;BME280;47349;55.640;37.692;2023-02-28T00:05:16;99734.91;;;-7.41;93.21
61484;BME280;47349;55.640;37.692;2023-02-28T00:07:43;99724.75;;;-7.47;93.53
61484;BME280;47349;55.640;37.692;2023-02-28T00:10:12;99731.78;;;-7.49;93.88
61484;BME280;47349;55.640;37.692;2023-02-28T00:12:39;99713.78;;;-7.55;93.62
61484;BME280;47349;55.640;37.692;2023-02-28T00:15:07;99718.31;;;-7.60;94.46
61484;BME280;47349;55.640;37.692;2023-02-28T00:17:35;99721.09;;;-7.65;94.34
61484;BME280;47349;55.640;37.692;2023-02-28T00:20:03;99721.94;;;-7.64;94.18
61484;BME280;47349;55.640;37.692;2023-02-28T00:22:31;99710.69;;;-7.65;94.86
61484;BME280;47349;55.640;37.692;2023-02-28T00:24:58;99704.66;;;-7.65;94.02
61484;BME280;47349;55.640;37.692;2023-02-28T00:27:25;99717.66;;;-7.65;94.32
61484;BME280;47349;55.640;37.692;2023-02-28T00:29:52;99703.06;;;-7.69;94.23
61484;BME280;47349;55.640;37.692;2023-02-28T00:32:29;99694.50;;;-7.71;94.32
61484;BME280;47349;55.640;37.692;2023-02-28T00:34:56;99701.38;;;-7.70;94.29
61484;BME280;47349;55.640;37.692;2023-02-28T00:37:24;99697.09;;;-7.71;94.43
61484;BME280;47349;55.640;37.692;2023-02-28T00:39:51;99708.41;;;-7.72;93.50
61484;BME280;47349;55.640;37.692;2023-02-28T00:42:18;99700.72;;;-7.76;93.76
61484;BME280;47349;55.640;37.692;2023-02-28T00:44:47;99701.75;;;-7.80;93.86
61484;BME280;47349;55.640;37.692;2023-02-28T00:47:14;99702.78;;;-7.84;93.34
61484;BME280;47349;55.640;37.692;2023-02-28T00:49:42;99699.31;;;-7.84;93.49
61484;BME280;47349;55.640;37.692;2023-02-28T00:52:09;99693.47;;;-7.89;93.51
61484;BME280;47349;55.640;37.692;2023-02-28T00:54:36;99686.84;;;-7.98;93.43
61484;BME280;47349;55.640;37.692;2023-02-28T00:57:03;99679.97;;;-7.99;93.67
61484;BME280;47349;55.640;37.692;2023-02-28T00:59:31;99674.84;;;-8.00;93.88
61484;BME280;47349;55.640;37.692;2023-02-28T01:01:58;99676.63;;;-8.03;94.02
61484;BME280;47349;55.640;37.692;2023-02-28T01:04:25;99671.38;;;-8.01;94.46
61484;BME280;47349;55.640;37.692;2023-02-28T01:06:52;99663.75;;;-8.06;93.98
61484;BME280;47349;55.640;37.692;2023-02-28T01:09:19;99668.22;;;-8.09;94.13
61484;BME280;47349;55.640;37.692;2023-02-28T01:11:46;99673.44;;;-8.09;93.75
61484;BME280;47349;55.640;37.692;2023-02-28T01:14:14;99668.34;;;-8.12;93.73
61484;BME280;47349;55.640;37.692;2023-02-28T01:16:41;99661.59;;;-8.16;94.33
61484;BME280;47349;55.640;37.692;2023-02-28T01:19:08;99662.44;;;-8.16;93.90
61484;BME280;47349;55.640;37.692;2023-02-28T01:21:37;99653.81;;;-8.18;94.30
61484;BME280;47349;55.640;37.692;2023-02-28T01:24:04;99652.38;;;-8.25;94.32
61484;BME280;47349;55.640;37.692;2023-02-28T01:26:34;99647.19;;;-8.25;94.75
61484;BME280;47349;55.640;37.692;2023-02-28T01:29:02;99630.19;;;-8.34;94.44
61484;BME280;47349;55.640;37.692;2023-02-28T01:31:29;99620.69;;;-8.35;94.27
61484;BME280;47349;55.640;37.692;2023-02-28T01:33:57;99625.13;;;-8.37;94.33
61484;BME280;47349;55.640;37.692;2023-02-28T01:36:29;99612.13;;;-8.37;94.58
61484;BME280;47349;55.640;37.692;2023-02-28T01:39:04;99613.03;;;-8.38;95.01
61484;BME280;47349;55.640;37.692;2023-02-28T01:41:34;99603.66;;;-8.42;94.71
61484;BME280;47349;55.640;37.692;2023-02-28T01:44:02;99612.25;;;-8.40;95.22
61484;BME280;47349;55.640;37.692;2023-02-28T01:46:32;99607.06;;;-8.40;94.93
61484;BME280;47349;55.640;37.692;2023-02-28T01:51:31;99598.34;;;-8.39;94.72
61484;BME280;47349;55.640;37.692;2023-02-28T01:54:05;99588.06;;;-8.42;94.88
61484;BME280;47349;55.640;37.692;2023-02-28T01:56:45;99589.88;;;-8.44;94.93
61484;BME280;47349;55.640;37.692;2023-02-28T01:59:14;99582.94;;;-8.43;95.48
61484;BME280;47349;55.640;37.692;2023-02-28T02:01:44;99570.19;;;-8.49;95.24
61484;BME280;47349;55.640;37.692;2023-02-28T02:04:12;99566.69;;;-8.48;94.84
61484;BME280;47349;55.640;37.692;2023-02-28T02:06:42;99572.72;;;-8.48;95.49
61484;BME280;47349;55.640;37.692;2023-02-28T02:09:10;99565.84;;;-8.49;95.55
61484;BME280;47349;55.640;37.692;2023-02-28T02:11:37;99560.63;;;-8.49;95.05
61484;BME280;47349;55.640;37.692;2023-02-28T02:14:10;99565.03;;;-8.51;95.39
61484;BME280;47349;55.640;37.692;2023-02-28T02:29:33;99535.31;;;-8.44;95.51
61484;BME280;47349;55.640;37.692;2023-02-28T02:37:16;99527.75;;;-8.50;95.34
61484;BME280;47349;55.640;37.692;2023-02-28T02:40:00;99524.38;;;-8.52;95.14
61484;BME280;47349;55.640;37.692;2023-02-28T02:45:06;99527.94;;;-8.55;95.79
61484;BME280;47349;55.640;37.692;2023-02-28T02:47:36;99530.47;;;-8.53;95.45
61484;BME280;47349;55.640;37.692;2023-02-28T02:50:05;99521.00;;;-8.54;95.60
61484;BME280;47349;55.640;37.692;2023-02-28T02:52:36;99514.88;;;-8.53;95.59
61484;BME280;47349;55.640;37.692;2023-02-28T02:55:05;99508.91;;;-8.55;95.84
61484;BME280;47349;55.640;37.692;2023-02-28T02:57:36;99502.91;;;-8.57;95.89
61484;BME280;47349;55.640;37.692;2023-02-28T03:00:08;99500.31;;;-8.57;95.95
61484;BME280;47349;55.640;37.692;2023-02-28T03:02:36;99489.16;;;-8.59;95.93
61484;BME280;47349;55.640;37.692;2023-02-28T03:05:05;99494.47;;;-8.62;95.82
61484;BME280;47349;55.640;37.692;2023-02-28T03:07:34;99491.63;;;-8.56;96.03
61484;BME280;47349;55.640;37.692;2023-02-28T03:10:01;99476.03;;;-8.56;95.89
61484;BME280;47349;55.640;37.692;2023-02-28T03:12:33;99479.44;;;-8.54;95.69
61484;BME280;47349;55.640;37.692;2023-02-28T03:15:13;99486.31;;;-8.53;95.91
61484;BME280;47349;55.640;37.692;2023-02-28T03:17:49;99476.75;;;-8.52;95.55
61484;BME280;47349;55.640;37.692;2023-02-28T03:23:48;99463.00;;;-8.55;95.54
61484;BME280;47349;55.640;37.692;2023-02-28T03:28:53;99452.44;;;-8.51;95.40
61484;BME280;47349;55.640;37.692;2023-02-28T03:31:30;99439.34;;;-8.48;95.30
61484;BME280;47349;55.640;37.692;2023-02-28T03:34:04;99447.88;;;-8.45;95.05
61484;BME280;47349;55.640;37.692;2023-02-28T03:36:39;99437.59;;;-8.48;94.65
61484;BME280;47349;55.640;37.692;2023-02-28T03:39:13;99422.00;;;-8.48;94.94
61484;BME280;47349;55.640;37.692;2023-02-28T03:41:45;99418.56;;;-8.48;94.61
61484;BME280;47349;55.640;37.692;2023-02-28T03:44:17;99415.13;;;-8.49;94.63
61484;BME280;47349;55.640;37.692;2023-02-28T03:46:48;99406.41;;;-8.48;94.79
61484;BME280;47349;55.640;37.692;2023-02-28T03:49:23;99416.72;;;-8.46;94.29
61484;BME280;47349;55.640;37.692;2023-02-28T03:51:53;99399.41;;;-8.46;94.20
61484;BME280;47349;55.640;37.692;2023-02-28T03:54:26;99414.84;;;-8.43;93.95
61484;BME280;47349;55.640;37.692;2023-02-28T03:57:10;99398.34;;;-8.42;93.53
61484;BME280;47349;55.640;37.692;2023-02-28T03:59:50;99380.97;;;-8.40;93.42
61484;BME280;47349;55.640;37.692;2023-02-28T04:02:19;99385.25;;;-8.39;92.89
61484;BME280;47349;55.640;37.692;2023-02-28T04:04:46;99376.47;;;-8.36;92.58
61484;BME280;47349;55.640;37.692;2023-02-28T04:07:15;99378.97;;;-8.35;92.35
61484;BME280;47349;55.640;37.692;2023-02-28T04:09:43;99371.09;;;-8.33;93.01
61484;BME280;47349;55.640;37.692;2023-02-28T04:12:11;99356.34;;;-8.33;92.61
61484;BME280;47349;55.640;37.692;2023-02-28T04:14:38;99367.66;;;-8.34;92.49
61484;BME280;47349;55.640;37.692;2023-02-28T04:17:06;99352.72;;;-8.29;91.68
61484;BME280;47349;55.640;37.692;2023-02-28T04:19:33;99338.03;;;-8.30;91.64
61484;BME280;47349;55.640;37.692;2023-02-28T04:22:14;99338.03;;;-8.30;91.09
61484;BME280;47349;55.640;37.692;2023-02-28T04:24:43;99333.69;;;-8.29;91.34
61484;BME280;47349;55.640;37.692;2023-02-28T04:27:11;99345.75;;;-8.28;91.25
61484;BME280;47349;55.640;37.692;2023-02-28T04:29:38;99341.41;;;-8.28;91.02
61484;BME280;47349;55.640;37.692;2023-02-28T04:32:06;99355.25;;;-8.27;90.87
61484;BME280;47349;55.640;37.692;2023-02-28T04:34:50;99344.00;;;-8.28;90.76
61484;BME280;47349;55.640;37.692;2023-02-28T04:37:17;99344.78;;;-8.25;90.57
61484;BME280;47349;55.640;37.692;2023-02-28T04:40:12;99350.00;;;-8.25;90.15
61484;BME280;47349;55.640;37.692;2023-02-28T04:42:39;99342.13;;;-8.24;89.85
61484;BME280;47349;55.640;37.692;2023-02-28T04:45:06;99334.97;;;-8.19;89.63
61484;BME280;47349;55.640;37.692;2023-02-28T04:47:36;99336.66;;;-8.18;88.76
61484;BME280;47349;55.640;37.692;2023-02-28T04:50:07;99327.09;;;-8.17;89.00
61484;BME280;47349;55.640;37.692;2023-02-28T04:52:34;99324.38;;;-8.14;88.81
61484;BME280;47349;55.640;37.692;2023-02-28T04:55:01;99315.59;;;-8.12;88.75
61484;BME280;47349;55.640;37.692;2023-02-28T04:57:28;99316.50;;;-8.13;88.41
61484;BME280;47349;55.640;37.692;2023-02-28T04:59:56;99290.28;;;-8.08;87.96
61484;BME280;47349;55.640;37.692;2023-02-28T05:02:23;99286.81;;;-8.07;87.57
61484;BME280;47349;55.640;37.692;2023-02-28T05:04:51;99278.91;;;-8.06;88.22
61484;BME280;47349;55.640;37.692;2023-02-28T05:07:18;99287.63;;;-8.07;87.66
61484;BME280;47349;55.640;37.692;2023-02-28T05:09:46;99291.09;;;-8.06;87.90
61484;BME280;47349;55.640;37.692;2023-02-28T05:12:14;99276.13;;;-8.01;87.32
61484;BME280;47349;55.640;37.692;2023-02-28T05:14:41;99261.34;;;-8.00;87.01
61484;BME280;47349;55.640;37.692;2023-02-28T05:17:13;99273.34;;;-7.98;86.13
61484;BME280;47349;55.640;37.692;2023-02-28T05:19:40;99264.38;;;-7.91;85.76
61484;BME280;47349;55.640;37.692;2023-02-28T05:22:12;99264.16;;;-7.86;85.40
61484;BME280;47349;55.640;37.692;2023-02-28T05:24:39;99249.28;;;-7.83;84.59
61484;BME280;47349;55.640;37.692;2023-02-28T05:27:08;99240.38;;;-7.79;84.35
61484;BME280;47349;55.640;37.692;2023-02-28T05:29:35;99228.78;;;-7.71;83.61
61484;BME280;47349;55.640;37.692;2023-02-28T05:32:09;99235.66;;;-7.70;83.40
61484;BME280;47349;55.640;37.692;2023-02-28T05:34:40;99228.34;;;-7.62;83.25
61484;BME280;47349;55.640;37.692;2023-02-28T05:37:13;99215.34;;;-7.62;82.51
61484;BME280;47349;55.640;37.692;2023-02-28T05:39:55;99220.69;;;-7.65;82.53
61484;BME280;47349;55.640;37.692;2023-02-28T05:42:23;99198.72;;;-7.60;82.54
61484;BME280;47349;55.640;37.692;2023-02-28T05:44:51;99195.91;;;-7.55;82.62
61484;BME280;47349;55.640;37.692;2023-02-28T05:47:19;99208.78;;;-7.52;81.71
61484;BME280;47349;55.640;37.692;2023-02-28T05:49:46;99198.00;;;-7.44;82.22
61484;BME280;47349;55.640;37.692;2023-02-28T05:52:13;99180.47;;;-7.41;81.73
61484;BME280;47349;55.640;37.692;2023-02-28T05:54:57;99172.66;;;-7.41;81.28
61484;BME280;47349;55.640;37.692;2023-02-28T05:57:25;99166.28;;;-7.35;80.50
61484;BME280;47349;55.640;37.692;2023-02-28T05:59:52;99173.81;;;-7.29;80.69
61484;BME280;47349;55.640;37.692;2023-02-28T06:02:19;99175.28;;;-7.23;80.12
61484;BME280;47349;55.640;37.692;2023-02-28T06:04:46;99143.84;;;-7.20;80.10
61484;BME280;47349;55.640;37.692;2023-02-28T06:07:13;99172.81;;;-7.09;79.11
61484;BME280;47349;55.640;37.692;2023-02-28T06:09:44;99156.03;;;-7.04;78.62
61484;BME280;47349;55.640;37.692;2023-02-28T06:12:11;99166.34;;;-7.02;78.63
61484;BME280;47349;55.640;37.692;2023-02-28T06:14:39;99158.31;;;-6.97;77.48
61484;BME280;47349;55.640;37.692;2023-02-28T06:17:08;99155.31;;;-6.90;77.93
61484;BME280;47349;55.640;37.692;2023-02-28T06:19:38;99115.47;;;-6.92;77.08
61484;BME280;47349;55.640;37.692;2023-02-28T06:22:08;99123.97;;;-6.88;76.73
61484;BME280;47349;55.640;37.692;2023-02-28T06:24:40;99103.97;;;-6.88;77.00
61484;BME280;47349;55.640;37.692;2023-02-28T06:27:07;99128.94;;;-6.84;77.24
61484;BME280;47349;55.640;37.692;2023-02-28T06:29:38;99110.38;;;-6.78;77.39
61484;BME280;47349;55.640;37.692;2023-02-28T06:32:28;99110.97;;;-6.73;77.19
61484;BME280;47349;55.640;37.692;2023-02-28T06:34:56;99113.78;;;-6.60;76.86
61484;BME280;47349;55.640;37.692;2023-02-28T06:37:24;99121.50;;;-6.58;76.50
61484;BME280;47349;55.640;37.692;2023-02-28T06:39:53;99102.72;;;-6.48;76.14
61484;BME280;47349;55.640;37.692;2023-02-28T06:42:23;99111.84;;;-6.40;75.58
61484;BME280;47349;55.640;37.692;2023-02-28T06:44:56;99098.66;;;-6.37;75.48
61484;BME280;47349;55.640;37.692;2023-02-28T06:47:23;99091.81;;;-6.24;75.50
61484;BME280;47349;55.640;37.692;2023-02-28T06:49:50;99114.72;;;-6.13;74.62
61484;BME280;47349;55.640;37.692;2023-02-28T06:52:17;99111.78;;;-6.07;74.01
61484;BME280;47349;55.640;37.692;2023-02-28T06:54:45;99102.66;;;-6.00;74.43
61484;BME280;47349;55.640;37.692;2023-02-28T06:57:13;99097.66;;;-5.89;74.08
61484;BME280;47349;55.640;37.692;2023-02-28T06:59:40;99070.28;;;-5.82;73.85
61484;BME280;47349;55.640;37.692;2023-02-28T07:02:07;99055.16;;;-5.91;73.62
61484;BME280;47349;55.640;37.692;2023-02-28T07:04:35;99053.50;;;-5.92;74.13
61484;BME280;47349;55.640;37.692;2023-02-28T07:07:03;99038.03;;;-5.81;74.10
61484;BME280;47349;55.640;37.692;2023-02-28T07:09:31;99040.56;;;-5.79;74.42
61484;BME280;47349;55.640;37.692;2023-02-28T07:11:58;99034.56;;;-5.65;74.07
61484;BME280;47349;55.640;37.692;2023-02-28T07:14:27;99007.22;;;-5.74;75.06
61484;BME280;47349;55.640;37.692;2023-02-28T07:16:55;98993.44;;;-5.62;74.16
61484;BME280;47349;55.640;37.692;2023-02-28T07:19:24;99014.59;;;-5.52;74.84
61484;BME280;47349;55.640;37.692;2023-02-28T07:21:51;98998.78;;;-5.49;74.23
61484;BME280;47349;55.640;37.692;2023-02-28T07:24:18;98988.88;;;-5.44;75.19
61484;BME280;47349;55.640;37.692;2023-02-28T07:26:46;98998.78;;;-5.35;75.04
61484;BME280;47349;55.640;37.692;2023-02-28T07:29:14;98996.56;;;-5.27;75.50
61484;BME280;47349;55.640;37.692;2023-02-28T07:31:41;98970.59;;;-5.15;75.61
61484;BME280;47349;55.640;37.692;2023-02-28T07:34:08;98966.66;;;-5.08;75.33
61484;BME280;47349;55.640;37.692;2023-02-28T07:36:37;98986.44;;;-5.04;76.04
61484;BME280;47349;55.640;37.692;2023-02-28T07:39:04;98977.09;;;-4.94;76.13
61484;BME280;47349;55.640;37.692;2023-02-28T07:41:31;98970.56;;;-4.87;76.78
61484;BME280;47349;55.640;37.692;2023-02-28T07:44:02;98964.75;;;-4.78;76.70
61484;BME280;47349;55.640;37.692;2023-02-28T07:46:31;98968.75;;;-4.72;77.22
61484;BME280;47349;55.640;37.692;2023-02-28T07:49:03;98950.34;;;-4.71;77.55
61484;BME280;47349;55.640;37.692;2023-02-28T07:51:35;98938.03;;;-4.69;77.31
61484;BME280;47349;55.640;37.692;2023-02-28T07:54:02;98953.00;;;-4.85;77.69
61484;BME280;47349;55.640;37.692;2023-02-28T07:56:30;98995.28;;;-4.78;78.27
61484;BME280;47349;55.640;37.692;2023-02-28T07:58:57;98935.63;;;-4.72;78.40
61484;BME280;47349;55.640;37.692;2023-02-28T08:01:24;98928.59;;;-4.71;78.33
61484;BME280;47349;55.640;37.692;2023-02-28T08:03:51;98919.81;;;-4.70;78.30
61484;BME280;47349;55.640;37.692;2023-02-28T08:06:19;98924.34;;;-4.59;79.11
61484;BME280;47349;55.640;37.692;2023-02-28T08:08:48;98931.31;;;-4.46;78.43
61484;BME280;47349;55.640;37.692;2023-02-28T08:11:15;98924.16;;;-4.29;77.84
61484;BME280;47349;55.640;37.692;2023-02-28T08:13:43;98914.09;;;-4.23;77.81
61484;BME280;47349;55.640;37.692;2023-02-28T08:16:12;98930.97;;;-4.14;78.10
61484;BME280;47349;55.640;37.692;2023-02-28T08:18:45;98922.06;;;-4.24;77.53
61484;BME280;47349;55.640;37.692;2023-02-28T08:21:12;98917.66;;;-4.24;78.21
61484;BME280;47349;55.640;37.692;2023-02-28T08:23:40;98927.53;;;-4.15;77.42
61484;BME280;47349;55.640;37.692;2023-02-28T08:26:07;98932.75;;;-4.02;77.60
61484;BME280;47349;55.640;37.692;2023-02-28T08:28:34;98900.75;;;-4.05;77.22
61484;BME280;47349;55.640;37.692;2023-02-28T08:31:06;98874.59;;;-4.05;77.15
61484;BME280;47349;55.640;37.692;2023-02-28T08:33:34;98865.56;;;-4.01;77.12
61484;BME280;47349;55.640;37.692;2023-02-28T08:36:17;98865.66;;;-4.03;77.07
61484;BME280;47349;55.640;37.692;2023-02-28T08:38:44;98873.84;;;-3.95;77.67
61484;BME280;47349;55.640;37.692;2023-02-28T08:41:13;98830.72;;;-3.89;77.53
61484;BME280;47349;55.640;37.692;2023-02-28T08:43:40;98848.72;;;-3.72;77.66
61484;BME280;47349;55.640;37.692;2023-02-28T08:46:08;98838.31;;;-3.60;77.35
61484;BME280;47349;55.640;37.692;2023-02-28T08:48:38;98839.78;;;-3.56;77.06
61484;BME280;47349;55.640;37.692;2023-02-28T08:51:10;98846.88;;;-3.46;77.47
61484;BME280;47349;55.640;37.692;2023-02-28T08:53:41;98859.16;;;-3.59;77.73
61484;BME280;47349;55.640;37.692;2023-02-28T08:56:22;98898.66;;;-3.62;78.25
61484;BME280;47349;55.640;37.692;2023-02-28T08:58:49;98915.75;;;-3.56;77.87
61484;BME280;47349;55.640;37.692;2023-02-28T09:01:21;98902.97;;;-3.61;78.40
61484;BME280;47349;55.640;37.692;2023-02-28T09:03:49;98905.34;;;-3.58;78.62
61484;BME280;47349;55.640;37.692;2023-02-28T09:06:17;98903.47;;;-3.69;79.57
61484;BME280;47349;55.640;37.692;2023-02-28T09:08:45;98880.34;;;-3.75;80.08
61484;BME280;47349;55.640;37.692;2023-02-28T09:11:12;98860.22;;;-3.74;80.54
61484;BME280;47349;55.640;37.692;2023-02-28T09:13:39;98882.22;;;-3.77;80.58
61484;BME280;47349;55.640;37.692;2023-02-28T09:16:08;98869.53;;;-3.70;80.90
61484;BME280;47349;55.640;37.692;2023-02-28T09:18:35;98859.06;;;-3.70;80.97
61484;BME280;47349;55.640;37.692;2023-02-28T09:21:05;98841.16;;;-3.64;80.92
61484;BME280;47349;55.640;37.692;2023-02-28T09:23:32;98839.78;;;-3.56;80.74
61484;BME280;47349;55.640;37.692;2023-02-28T09:26:00;98826.69;;;-3.56;80.88
61484;BME280;47349;55.640;37.692;2023-02-28T09:28:27;98829.69;;;-3.50;80.87
61484;BME280;47349;55.640;37.692;2023-02-28T09:30:54;98849.38;;;-3.44;81.08
61484;BME280;47349;55.640;37.692;2023-02-28T09:33:23;98834.63;;;-3.45;81.21
61484;BME280;47349;55.640;37.692;2023-02-28T09:35:50;98819.09;;;-3.36;81.31
61484;BME280;47349;55.640;37.692;2023-02-28T09:38:18;98828.00;;;-3.38;81.87
61484;BME280;47349;55.640;37.692;2023-02-28T09:40:54;98820.88;;;-3.36;82.07
61484;BME280;47349;55.640;37.692;2023-02-28T09:43:25;98839.22;;;-3.36;82.30
61484;BME280;47349;55.640;37.692;2023-02-28T09:45:59;98825.91;;;-3.33;82.49
61484;BME280;47349;55.640;37.692;2023-02-28T09:48:34;98842.63;;;-3.23;82.67
61484;BME280;47349;55.640;37.692;2023-02-28T09:54:14;98831.72;;;-3.17;82.34
61484;BME280;47349;55.640;37.692;2023-02-28T09:56:49;98831.06;;;-3.07;82.31
61484;BME280;47349;55.640;37.692;2023-02-28T10:04:42;98803.22;;;-2.97;82.23
61484;BME280;47349;55.640;37.692;2023-02-28T10:10:03;98813.75;;;-3.10;82.69
61484;BME280;47349;55.640;37.692;2023-02-28T10:12:31;98789.13;;;-3.07;82.93
61484;BME280;47349;55.640;37.692;2023-02-28T10:15:00;98791.28;;;-3.01;82.92
61484;BME280;47349;55.640;37.692;2023-02-28T10:17:37;98786.03;;;-3.01;82.83
61484;BME280;47349;55.640;37.692;2023-02-28T10:20:21;98777.22;;;-3.00;82.85
61484;BME280;47349;55.640;37.692;2023-02-28T10:25:23;98760.78;;;-3.02;82.97
61484;BME280;47349;55.640;37.692;2023-02-28T10:27:54;98761.63;;;-3.02;82.87
61484;BME280;47349;55.640;37.692;2023-02-28T10:30:25;98756.03;;;-2.97;82.83
61484;BME280;47349;55.640;37.692;2023-02-28T10:32:53;98753.28;;;-2.96;82.75
61484;BME280;47349;55.640;37.692;2023-02-28T10:35:22;98741.88;;;-2.95;82.61
61484;BME280;47349;55.640;37.692;2023-02-28T10:37:50;98747.69;;;-2.91;82.65
61484;BME280;47349;55.640;37.692;2023-02-28T10:42:55;98763.69;;;-2.94;82.66
61484;BME280;47349;55.640;37.692;2023-02-28T10:45:23;98740.44;;;-2.99;82.62
61484;BME280;47349;55.640;37.692;2023-02-28T10:47:56;98734.59;;;-2.91;83.00
61484;BME280;47349;55.640;37.692;2023-02-28T10:52:57;98740.03;;;-3.05;83.58
61484;BME280;47349;55.640;37.692;2023-02-28T10:55:33;98709.88;;;-3.11;83.87
61484;BME280;47349;55.640;37.692;2023-02-28T10:58:03;98735.53;;;-3.03;83.86
61484;BME280;47349;55.640;37.692;2023-02-28T11:00:47;98761.00;;;-3.05;84.08
61484;BME280;47349;55.640;37.692;2023-02-28T11:03:50;98717.75;;;-3.00;84.05
61484;BME280;47349;55.640;37.692;2023-02-28T11:06:15;98732.66;;;-3.00;84.44
61484;BME280;47349;55.640;37.692;2023-02-28T11:08:48;98722.16;;;-3.00;84.39
61484;BME280;47349;55.640;37.692;2023-02-28T11:11:16;98713.13;;;-2.96;84.52
61484;BME280;47349;55.640;37.692;2023-02-28T11:13:45;98712.09;;;-2.94;84.85
61484;BME280;47349;55.640;37.692;2023-02-28T11:16:13;98703.38;;;-2.94;85.16
61484;BME280;47349;55.640;37.692;2023-02-28T11:18:47;98714.22;;;-2.99;85.60
61484;BME280;47349;55.640;37.692;2023-02-28T11:21:23;98690.72;;;-3.00;86.00
61484;BME280;47349;55.640;37.692;2023-02-28T11:24:00;98718.63;;;-2.99;86.21
61484;BME280;47349;55.640;37.692;2023-02-28T11:26:35;98691.78;;;-3.03;86.56
61484;BME280;47349;55.640;37.692;2023-02-28T11:29:11;98689.38;;;-3.06;87.14
61484;BME280;47349;55.640;37.692;2023-02-28T11:31:39;98690.63;;;-2.99;86.91
61484;BME280;47349;55.640;37.692;2023-02-28T11:34:25;98686.09;;;-2.97;87.08
61484;BME280;47349;55.640;37.692;2023-02-28T11:36:54;98676.44;;;-2.96;87.62
61484;BME280;47349;55.640;37.692;2023-02-28T11:39:21;98688.84;;;-2.98;87.54
61484;BME280;47349;55.640;37.692;2023-02-28T11:50:16;98697.53;;;-2.87;87.43
61484;BME280;47349;55.640;37.692;2023-02-28T11:52:45;98673.59;;;-2.82;87.39
61484;BME280;47349;55.640;37.692;2023-02-28T11:55:25;98681.72;;;-2.85;87.64
61484;BME280;47349;55.640;37.692;2023-02-28T12:11:30;98649.41;;;-2.86;88.52
61484;BME280;47349;55.640;37.692;2023-02-28T12:16:57;98630.69;;;-2.81;89.31
61484;BME280;47349;55.640;37.692;2023-02-28T12:19:37;98631.28;;;-2.89;90.42
61484;BME280;47349;55.640;37.692;2023-02-28T12:27:36;98639.13;;;-3.00;94.83
61484;BME280;47349;55.640;37.692;2023-02-28T12:30:05;98644.63;;;-3.03;94.69
61484;BME280;47349;55.640;37.692;2023-02-28T12:32:35;98646.00;;;-3.10;94.83
61484;BME280;47349;55.640;37.692;2023-02-28T12:35:21;98627.22;;;-3.04;95.13
61484;BME280;47349;55.640;37.692;2023-02-28T12:37:57;98637.56;;;-3.14;95.99
61484;BME280;47349;55.640;37.692;2023-02-28T12:43:22;98635.44;;;-3.08;96.73
61484;BME280;47349;55.640;37.692;2023-02-28T12:45:53;98602.06;;;-3.06;96.77
61484;BME280;47349;55.640;37.692;2023-02-28T12:48:28;98590.13;;;-3.11;97.54
61484;BME280;47349;55.640;37.692;2023-02-28T12:50:58;98605.50;;;-3.17;99.07
61484;BME280;47349;55.640;37.692;2023-02-28T12:56:21;98599.66;;;-3.21;100.00
61484;BME280;47349;55.640;37.692;2023-02-28T12:58:52;98595.25;;;-3.20;100.00
61484;BME280;47349;55.640;37.692;2023-02-28T13:01:35;98582.06;;;-3.19;100.00
61484;BME280;47349;55.640;37.692;2023-02-28T13:09:18;98562.28;;;-3.12;100.00
61484;BME280;47349;55.640;37.692;2023-02-28T13:11:47;98564.06;;;-3.12;99.89
61484;BME280;47349;55.640;37.692;2023-02-28T13:19:25;98537.28;;;-3.04;98.67
61484;BME280;47349;55.640;37.692;2023-02-28T13:21:53;98545.00;;;-3.03;98.18
61484;BME280;47349;55.640;37.692;2023-02-28T13:34:35;98536.53;;;-2.95;97.56
61484;BME280;47349;55.640;37.692;2023-02-28T13:42:36;98571.81;;;-2.88;97.53
61484;BME280;47349;55.640;37.692;2023-02-28T13:45:21;98522.63;;;-2.85;97.39
61484;BME280;47349;55.640;37.692;2023-02-28T13:47:53;98526.78;;;-2.82;97.37
61484;BME280;47349;55.640;37.692;2023-02-28T13:50:27;98502.47;;;-2.84;97.44
61484;BME280;47349;55.640;37.692;2023-02-28T13:55:52;98574.56;;;-2.78;97.44
61484;BME280;47349;55.640;37.692;2023-02-28T14:06:32;98507.47;;;-2.70;97.34
61484;BME280;47349;55.640;37.692;2023-02-28T14:09:02;98505.91;;;-2.72;97.55
61484;BME280;47349;55.640;37.692;2023-02-28T14:11:35;98549.28;;;-2.68;97.76
61484;BME280;47349;55.640;37.692;2023-02-28T14:14:03;98484.44;;;-2.66;97.72
61484;BME280;47349;55.640;37.692;2023-02-28T14:19:13;98537.50;;;-2.63;97.81
61484;BME280;47349;55.640;37.692;2023-02-28T14:27:11;98520.09;;;-2.64;98.76
61484;BME280;47349;55.640;37.692;2023-02-28T14:32:28;98496.25;;;-2.61;98.86
61484;BME280;47349;55.640;37.692;2023-02-28T14:37:33;98529.03;;;-2.55;99.40
61484;BME280;47349;55.640;37.692;2023-02-28T14:40:03;98477.41;;;-2.54;99.71
61484;BME280;47349;55.640;37.692;2023-02-28T14:42:35;98474.03;;;-2.56;100.00
61484;BME280;47349;55.640;37.692;2023-02-28T14:45:05;98484.31;;;-2.53;100.00
61484;BME280;47349;55.640;37.692;2023-02-28T14:47:46;98460.81;;;-2.55;100.00
61484;BME280;47349;55.640;37.692;2023-02-28T14:50:20;98462.84;;;-2.59;100.00
61484;BME280;47349;55.640;37.692;2023-02-28T14:52:49;98450.56;;;-2.58;100.00
61484;BME280;47349;55.640;37.692;2023-02-28T14:55:19;98479.09;;;-2.65;100.00
61484;BME280;47349;55.640;37.692;2023-02-28T14:57:57;98448.31;;;-2.63;100.00
61484;BME280;47349;55.640;37.692;2023-02-28T15:00:29;98469.19;;;-2.61;100.00
61484;BME280;47349;55.640;37.692;2023-02-28T15:02:58;98470.13;;;-2.62;100.00
61484;BME280;47349;55.640;37.692;2023-02-28T15:05:35;98447.34;;;-2.62;100.00
61484;BME280;47349;55.640;37.692;2023-02-28T15:08:10;98479.56;;;-2.60;100.00
61484;BME280;47349;55.640;37.692;2023-02-28T15:10:50;98433.75;;;-2.55;100.00
61484;BME280;47349;55.640;37.692;2023-02-28T15:13:19;98457.94;;;-2.52;100.00
61484;BME280;47349;55.640;37.692;2023-02-28T15:15:54;98430.63;;;-2.49;100.00
61484;BME280;47349;55.640;37.692;2023-02-28T15:21:06;98449.22;;;-2.41;100.00
61484;BME280;47349;55.640;37.692;2023-02-28T15:23:35;98459.34;;;-2.37;100.00